createdAt,value
2018-06-17T00:00:43.415Z,17.86
2018-06-17T00:01:43.594Z,17.92
2018-06-17T00:02:43.797Z,17.89
2018-06-17T00:03:43.974Z,17.89
2018-06-17T00:04:44.155Z,17.97
2018-06-17T00:05:44.348Z,17.94
2018-06-17T00:06:44.506Z,17.74
2018-06-17T00:07:44.697Z,17.82
2018-06-17T00:08:44.877Z,17.78
2018-06-17T00:09:45.049Z,17.80
2018-06-17T00:10:45.222Z,17.80
2018-06-17T00:11:45.401Z,17.80
2018-06-17T00:12:45.585Z,17.74
2018-06-17T00:13:45.759Z,17.85
2018-06-17T00:14:45.929Z,17.78
2018-06-17T00:15:46.100Z,17.82
2018-06-17T00:16:46.275Z,17.71
2018-06-17T00:17:46.464Z,17.67
2018-06-17T00:18:46.631Z,17.60
2018-06-17T00:19:46.813Z,17.64
2018-06-17T00:20:46.981Z,17.60
2018-06-17T00:21:47.155Z,17.67
2018-06-17T00:22:47.334Z,17.71
2018-06-17T00:23:47.507Z,17.79
2018-06-17T00:24:47.677Z,17.72
2018-06-17T00:25:47.842Z,17.82
2018-06-17T00:26:48.021Z,17.78
2018-06-17T00:27:48.192Z,17.80
2018-06-17T00:28:48.376Z,17.87
2018-06-17T00:29:48.550Z,17.86
2018-06-17T00:30:48.728Z,17.92
2018-06-17T00:31:48.904Z,17.87
2018-06-17T00:32:49.074Z,17.90
2018-06-17T00:33:49.253Z,17.95
2018-06-17T00:34:49.416Z,17.89
2018-06-17T00:35:49.598Z,17.87
2018-06-17T00:36:49.771Z,17.87
2018-06-17T00:37:49.938Z,17.85
2018-06-17T00:38:50.121Z,17.83
2018-06-17T00:39:50.292Z,17.76
2018-06-17T00:40:50.474Z,17.80
2018-06-17T00:41:50.639Z,17.71
2018-06-17T00:42:50.820Z,17.70
2018-06-17T00:43:50.989Z,17.68
2018-06-17T00:44:51.160Z,17.68
2018-06-17T00:45:51.341Z,17.74
2018-06-17T00:46:51.521Z,17.64
2018-06-17T00:47:51.706Z,17.74
2018-06-17T00:48:51.879Z,17.71
2018-06-17T00:49:52.058Z,17.68
2018-06-17T00:50:52.232Z,17.74
2018-06-17T00:51:52.412Z,17.71
2018-06-17T00:52:52.589Z,17.65
2018-06-17T00:53:52.767Z,17.63
2018-06-17T00:54:52.946Z,17.72
2018-06-17T00:55:53.123Z,17.71
2018-06-17T00:56:53.302Z,17.72
2018-06-17T00:57:53.487Z,17.65
2018-06-17T00:58:53.656Z,17.59
2018-06-17T00:59:53.827Z,17.72
2018-06-17T01:00:53.998Z,17.63
2018-06-17T01:01:54.183Z,17.68
2018-06-17T01:02:54.360Z,17.71
2018-06-17T01:03:54.531Z,17.67
2018-06-17T01:04:54.720Z,17.64
2018-06-17T01:05:54.891Z,17.59
2018-06-17T01:06:55.070Z,17.49
2018-06-17T01:07:55.243Z,17.48
2018-06-17T01:08:55.418Z,17.45
2018-06-17T01:09:55.594Z,17.42
2018-06-17T01:10:55.782Z,17.52
2018-06-17T01:11:55.950Z,17.33
2018-06-17T01:12:56.131Z,17.29
2018-06-17T01:13:56.310Z,17.39
2018-06-17T01:14:56.490Z,17.36
2018-06-17T01:15:56.675Z,17.34
2018-06-17T01:16:56.852Z,17.30
2018-06-17T01:17:57.023Z,17.33
2018-06-17T01:18:57.246Z,17.26
2018-06-17T01:19:57.387Z,17.06
2018-06-17T01:20:57.557Z,17.12
2018-06-17T01:21:57.734Z,17.11
2018-06-17T01:22:57.901Z,16.99
2018-06-17T01:23:58.074Z,17.05
2018-06-17T01:24:58.257Z,17.11
2018-06-17T01:25:58.437Z,17.06
2018-06-17T01:26:58.612Z,17.02
2018-06-17T01:27:58.787Z,16.99
2018-06-17T01:28:58.969Z,17.05
2018-06-17T01:29:59.144Z,17.05
2018-06-17T01:30:59.314Z,16.99
2018-06-17T01:31:59.488Z,16.99
2018-06-17T01:32:59.674Z,16.99
2018-06-17T01:33:59.843Z,16.97
2018-06-17T01:35:00.021Z,16.97
2018-06-17T01:36:00.191Z,17.01
2018-06-17T01:37:00.358Z,16.81
2018-06-17T01:38:00.535Z,16.89
2018-06-17T01:39:00.710Z,16.76
2018-06-17T01:40:00.887Z,16.74
2018-06-17T01:41:01.057Z,16.71
2018-06-17T01:42:01.236Z,16.68
2018-06-17T01:43:01.420Z,16.66
2018-06-17T01:44:01.576Z,16.75
2018-06-17T01:45:01.757Z,16.83
2018-06-17T01:46:01.932Z,16.78
2018-06-17T01:47:02.110Z,16.81
2018-06-17T01:48:02.291Z,16.69
2018-06-17T01:49:02.470Z,16.69
2018-06-17T01:50:02.643Z,16.72
2018-06-17T01:51:02.822Z,16.72
2018-06-17T01:52:03.006Z,16.71
2018-06-17T01:53:03.177Z,16.71
2018-06-17T01:54:03.358Z,16.71
2018-06-17T01:55:03.529Z,16.71
2018-06-17T01:56:03.699Z,16.68
2018-06-17T01:57:03.874Z,16.64
2018-06-17T01:58:04.053Z,16.72
2018-06-17T01:59:04.228Z,16.66
2018-06-17T02:00:04.401Z,16.72
2018-06-17T02:01:04.578Z,16.72
2018-06-17T02:02:04.757Z,16.78
2018-06-17T02:03:04.935Z,16.76
2018-06-17T02:04:05.118Z,16.79
2018-06-17T02:05:05.285Z,16.76
2018-06-17T02:06:05.465Z,16.66
2018-06-17T02:07:05.643Z,16.78
2018-06-17T02:08:05.816Z,16.78
2018-06-17T02:09:05.988Z,16.79
2018-06-17T02:10:06.159Z,16.81
2018-06-17T02:11:06.340Z,16.79
2018-06-17T02:12:06.517Z,16.78
2018-06-17T02:13:06.686Z,16.76
2018-06-17T02:14:06.859Z,16.68
2018-06-17T02:15:07.040Z,16.72
2018-06-17T02:16:07.245Z,16.69
2018-06-17T02:17:07.411Z,16.72
2018-06-17T02:18:07.591Z,16.68
2018-06-17T02:19:07.771Z,16.65
2018-06-17T02:20:07.941Z,16.69
2018-06-17T02:21:08.113Z,16.68
2018-06-17T02:22:08.292Z,16.68
2018-06-17T02:23:08.466Z,16.56
2018-06-17T02:24:08.641Z,16.61
2018-06-17T02:25:08.820Z,16.58
2018-06-17T02:26:09.004Z,16.54
2018-06-17T02:27:09.182Z,16.47
2018-06-17T02:28:09.356Z,16.43
2018-06-17T02:29:09.527Z,16.49
2018-06-17T02:30:09.706Z,16.49
2018-06-17T02:31:09.872Z,16.46
2018-06-17T02:32:10.045Z,16.39
2018-06-17T02:33:10.223Z,16.36
2018-06-17T02:34:10.398Z,16.41
2018-06-17T02:35:10.567Z,16.53
2018-06-17T02:36:10.746Z,16.39
2018-06-17T02:37:10.921Z,16.50
2018-06-17T02:38:11.094Z,16.46
2018-06-17T02:39:11.278Z,16.43
2018-06-17T02:40:11.455Z,16.50
2018-06-17T02:41:11.632Z,16.54
2018-06-17T02:42:11.803Z,16.47
2018-06-17T02:43:11.976Z,16.56
2018-06-17T02:44:12.149Z,16.56
2018-06-17T02:45:12.325Z,16.60
2018-06-17T02:46:12.514Z,16.64
2018-06-17T02:47:12.687Z,16.61
2018-06-17T02:48:12.857Z,16.68
2018-06-17T02:49:13.037Z,16.64
2018-06-17T02:50:13.217Z,16.65
2018-06-17T02:51:13.406Z,16.66
2018-06-17T02:52:13.577Z,16.64
2018-06-17T02:53:13.755Z,16.69
2018-06-17T02:54:13.931Z,16.72
2018-06-17T02:55:14.112Z,16.78
2018-06-17T02:56:14.282Z,16.79
2018-06-17T02:57:14.451Z,16.76
2018-06-17T02:58:14.630Z,16.81
2018-06-17T02:59:14.801Z,16.68
2018-06-17T03:00:14.979Z,16.66
2018-06-17T03:01:15.161Z,16.71
2018-06-17T03:02:15.339Z,16.76
2018-06-17T03:03:15.520Z,16.71
2018-06-17T03:04:15.693Z,16.78
2018-06-17T03:05:15.871Z,16.71
2018-06-17T03:06:16.043Z,16.74
2018-06-17T03:07:16.221Z,16.76
2018-06-17T03:08:16.397Z,16.89
2018-06-17T03:09:16.573Z,16.83
2018-06-17T03:10:16.751Z,16.90
2018-06-17T03:11:16.925Z,16.91
2018-06-17T03:12:17.103Z,16.86
2018-06-17T03:13:17.277Z,16.71
2018-06-17T03:14:17.458Z,16.74
2018-06-17T03:15:17.632Z,16.65
2018-06-17T03:16:17.819Z,16.68
2018-06-17T03:17:17.979Z,16.76
2018-06-17T03:18:18.157Z,16.86
2018-06-17T03:19:18.341Z,16.90
2018-06-17T03:20:18.516Z,16.96
2018-06-17T03:21:18.681Z,16.99
2018-06-17T03:22:18.862Z,16.89
2018-06-17T03:23:19.037Z,16.99
2018-06-17T03:24:19.219Z,16.96
2018-06-17T03:25:19.386Z,17.02
2018-06-17T03:26:19.565Z,16.96
2018-06-17T03:27:19.742Z,16.99
2018-06-17T03:28:19.912Z,16.94
2018-06-17T03:29:20.089Z,17.02
2018-06-17T03:30:20.261Z,16.90
2018-06-17T03:31:20.437Z,16.96
2018-06-17T03:32:20.610Z,16.97
2018-06-17T03:33:20.785Z,16.99
2018-06-17T03:34:20.962Z,17.06
2018-06-17T03:35:21.140Z,17.04
2018-06-17T03:36:21.317Z,17.01
2018-06-17T03:37:21.498Z,17.11
2018-06-17T03:38:21.673Z,17.02
2018-06-17T03:39:21.843Z,17.22
2018-06-17T03:40:22.032Z,17.12
2018-06-17T03:41:22.201Z,17.16
2018-06-17T03:42:22.376Z,17.26
2018-06-17T03:43:22.558Z,17.24
2018-06-17T03:44:22.733Z,17.29
2018-06-17T03:45:22.906Z,17.30
2018-06-17T03:46:23.083Z,17.26
2018-06-17T03:47:23.260Z,17.27
2018-06-17T03:48:23.434Z,17.31
2018-06-17T03:49:23.603Z,17.27
2018-06-17T03:50:23.782Z,17.26
2018-06-17T03:51:23.961Z,17.27
2018-06-17T03:52:24.138Z,17.24
2018-06-17T03:53:24.314Z,17.20
2018-06-17T03:54:24.487Z,17.22
2018-06-17T03:55:24.660Z,17.24
2018-06-17T03:56:24.839Z,17.22
2018-06-17T03:57:25.020Z,17.23
2018-06-17T03:58:25.194Z,17.22
2018-06-17T03:59:25.371Z,17.24
2018-06-17T04:00:25.556Z,17.22
2018-06-17T04:01:25.731Z,17.23
2018-06-17T04:02:25.916Z,17.33
2018-06-17T04:03:26.091Z,17.34
2018-06-17T04:04:26.263Z,17.36
2018-06-17T04:05:26.436Z,17.38
2018-06-17T04:06:26.613Z,17.36
2018-06-17T04:07:26.784Z,17.39
2018-06-17T04:08:26.961Z,17.51
2018-06-17T04:09:27.144Z,17.49
2018-06-17T04:10:27.352Z,17.45
2018-06-17T04:11:27.487Z,17.45
2018-06-17T04:12:27.672Z,17.45
2018-06-17T04:13:27.852Z,17.42
2018-06-17T04:14:28.033Z,17.44
2018-06-17T04:15:28.204Z,17.52
2018-06-17T04:16:28.459Z,17.38
2018-06-17T04:17:28.580Z,17.46
2018-06-17T04:18:28.755Z,17.49
2018-06-17T04:19:28.928Z,17.45
2018-06-17T04:20:29.097Z,17.52
2018-06-17T04:21:29.385Z,17.46
2018-06-17T04:22:29.461Z,17.49
2018-06-17T04:23:29.656Z,17.57
2018-06-17T04:24:29.841Z,17.59
2018-06-17T04:25:32.675Z,17.60
2018-06-17T04:26:33.786Z,17.59
2018-06-17T04:27:30.352Z,17.56
2018-06-17T04:28:30.524Z,17.60
2018-06-17T04:29:33.706Z,17.56
2018-06-17T04:30:32.474Z,17.56
2018-06-17T04:31:32.804Z,17.74
2018-06-17T04:32:33.707Z,17.70
2018-06-17T04:33:31.359Z,17.79
2018-06-17T04:34:33.447Z,17.78
2018-06-17T04:35:34.368Z,17.85
2018-06-17T04:36:32.846Z,17.89
2018-06-17T04:37:33.887Z,17.85
2018-06-17T04:38:33.662Z,17.98
2018-06-17T04:39:32.315Z,17.92
2018-06-17T04:40:36.340Z,18.00
2018-06-17T04:41:34.905Z,18.01
2018-06-17T04:42:35.536Z,18.00
2018-06-17T04:43:39.277Z,18.01
2018-06-17T04:44:35.533Z,18.00
2018-06-17T04:45:34.606Z,18.01
2018-06-17T04:46:33.483Z,18.03
2018-06-17T04:47:34.929Z,17.97
2018-06-17T04:48:35.933Z,18.03
2018-06-17T04:49:35.627Z,18.03
2018-06-17T04:50:36.108Z,18.15
2018-06-17T04:51:36.758Z,18.10
2018-06-17T04:52:38.015Z,18.10
2018-06-17T04:53:37.601Z,18.22
2018-06-17T04:54:38.244Z,18.25
2018-06-17T04:55:38.094Z,18.10
2018-06-17T04:56:37.283Z,18.22
2018-06-17T04:57:39.369Z,18.26
2018-06-17T04:58:38.147Z,18.23
2018-06-17T04:59:40.419Z,18.37
2018-06-17T05:00:40.066Z,18.35
2018-06-17T05:01:38.418Z,18.38
2018-06-17T05:02:37.890Z,18.49
2018-06-17T05:03:40.430Z,18.49
2018-06-17T05:04:39.067Z,18.49
2018-06-17T05:05:39.593Z,18.44
2018-06-17T05:06:39.182Z,18.50
2018-06-17T05:07:40.264Z,18.53
2018-06-17T05:08:38.233Z,18.59
2018-06-17T05:09:39.718Z,18.59
2018-06-17T05:10:39.123Z,18.58
2018-06-17T05:11:40.069Z,18.58
2018-06-17T05:12:39.196Z,18.63
2018-06-17T05:13:40.746Z,18.62
2018-06-17T05:14:39.457Z,18.77
2018-06-17T05:15:41.074Z,18.77
2018-06-17T05:16:39.169Z,18.89
2018-06-17T05:17:39.904Z,18.92
2018-06-17T05:18:41.116Z,18.95
2018-06-17T05:19:39.708Z,19.07
2018-06-17T05:20:40.007Z,19.04
2018-06-17T05:21:40.876Z,18.92
2018-06-17T05:22:41.164Z,18.90
2018-06-17T05:23:42.484Z,18.98
2018-06-17T05:24:42.707Z,18.95
2018-06-17T05:25:40.480Z,19.07
2018-06-17T05:26:42.416Z,19.04
2018-06-17T05:27:44.607Z,18.98
2018-06-17T05:28:40.548Z,19.00
2018-06-17T05:29:40.722Z,19.07
2018-06-17T05:30:40.897Z,19.21
2018-06-17T05:31:41.074Z,19.29
2018-06-17T05:32:41.254Z,19.33
2018-06-17T05:33:41.433Z,19.36
2018-06-17T05:34:41.610Z,19.45
2018-06-17T05:35:41.803Z,19.49
2018-06-17T05:36:43.602Z,19.54
2018-06-17T05:37:42.180Z,19.55
2018-06-17T05:38:42.370Z,19.69
2018-06-17T05:39:44.006Z,19.62
2018-06-17T05:40:44.097Z,19.74
2018-06-17T05:41:42.968Z,19.73
2018-06-17T05:42:43.138Z,19.77
2018-06-17T05:43:43.682Z,19.82
2018-06-17T05:44:44.931Z,19.85
2018-06-17T05:45:43.595Z,19.85
2018-06-17T05:46:47.183Z,19.82
2018-06-17T05:47:44.469Z,19.71
2018-06-17T05:48:44.070Z,19.59
2018-06-17T05:49:44.254Z,19.63
2018-06-17T05:50:44.423Z,19.67
2018-06-17T05:51:44.600Z,19.69
2018-06-17T05:52:44.779Z,19.79
2018-06-17T05:53:44.955Z,19.81
2018-06-17T05:54:45.139Z,19.86
2018-06-17T05:55:45.347Z,19.89
2018-06-17T05:56:45.496Z,19.99
2018-06-17T05:57:45.675Z,20.00
2018-06-17T05:58:45.853Z,20.09
2018-06-17T05:59:46.031Z,20.19
2018-06-17T06:00:46.209Z,20.36
2018-06-17T06:01:46.397Z,20.40
2018-06-17T06:02:46.584Z,20.55
2018-06-17T06:03:46.770Z,20.62
2018-06-17T06:04:46.952Z,20.58
2018-06-17T06:05:47.137Z,20.60
2018-06-17T06:06:47.308Z,20.60
2018-06-17T06:07:47.484Z,20.59
2018-06-17T06:08:47.656Z,20.67
2018-06-17T06:09:47.834Z,20.74
2018-06-17T06:10:48.004Z,20.78
2018-06-17T06:11:48.185Z,20.85
2018-06-17T06:12:48.352Z,20.74
2018-06-17T06:13:48.532Z,20.78
2018-06-17T06:14:48.708Z,20.81
2018-06-17T06:15:48.885Z,20.80
2018-06-17T06:16:49.065Z,20.75
2018-06-17T06:17:49.246Z,20.92
2018-06-17T06:18:49.423Z,20.87
2018-06-17T06:19:52.737Z,20.96
2018-06-17T06:20:49.926Z,21.03
2018-06-17T06:21:49.873Z,21.12
2018-06-17T06:22:50.060Z,21.06
2018-06-17T06:23:50.241Z,21.21
2018-06-17T06:24:50.475Z,21.32
2018-06-17T06:25:50.596Z,21.46
2018-06-17T06:26:50.773Z,21.52
2018-06-17T06:27:50.952Z,21.54
2018-06-17T06:28:51.129Z,21.62
2018-06-17T06:29:51.308Z,21.62
2018-06-17T06:30:51.542Z,21.66
2018-06-17T06:31:51.659Z,21.75
2018-06-17T06:32:53.381Z,21.73
2018-06-17T06:33:52.049Z,21.89
2018-06-17T06:34:55.408Z,21.88
2018-06-17T06:35:52.393Z,21.95
2018-06-17T06:36:53.593Z,22.00
2018-06-17T06:37:54.829Z,22.29
2018-06-17T06:38:52.880Z,22.80
2018-06-17T06:39:54.304Z,23.25
2018-06-17T06:40:53.213Z,23.34
2018-06-17T06:41:53.393Z,23.28
2018-06-17T06:42:53.584Z,22.98
2018-06-17T06:43:53.746Z,22.84
2018-06-17T06:44:53.933Z,22.75
2018-06-17T06:45:54.118Z,23.34
2018-06-17T06:46:54.297Z,23.86
2018-06-17T06:47:54.476Z,23.91
2018-06-17T06:48:54.657Z,23.47
2018-06-17T06:49:54.840Z,23.28
2018-06-17T06:50:55.051Z,23.24
2018-06-17T06:51:55.203Z,22.98
2018-06-17T06:52:55.386Z,22.99
2018-06-17T06:53:55.569Z,23.18
2018-06-17T06:54:55.752Z,23.23
2018-06-17T06:55:55.928Z,23.21
2018-06-17T06:56:56.110Z,24.38
2018-06-17T06:57:56.291Z,25.16
2018-06-17T06:58:57.950Z,25.80
2018-06-17T06:59:59.660Z,25.81
2018-06-17T07:00:59.758Z,25.96
2018-06-17T07:01:58.939Z,26.60
2018-06-17T07:02:59.261Z,27.10
2018-06-17T07:03:58.845Z,27.52
2018-06-17T07:04:57.613Z,27.77
2018-06-17T07:05:57.790Z,28.41
2018-06-17T07:06:57.975Z,28.88
2018-06-17T07:07:58.162Z,29.34
2018-06-17T07:08:58.341Z,28.93
2018-06-17T07:09:58.572Z,28.25
2018-06-17T07:10:58.717Z,27.60
2018-06-17T07:11:59.092Z,26.58
2018-06-17T07:12:59.441Z,26.03
2018-06-17T07:13:59.514Z,25.72
2018-06-17T07:14:59.653Z,25.22
2018-06-17T07:15:59.843Z,25.36
2018-06-17T07:17:00.030Z,26.19
2018-06-17T07:18:00.327Z,26.65
2018-06-17T07:19:00.508Z,27.35
2018-06-17T07:20:00.317Z,28.25
2018-06-17T07:21:00.510Z,28.91
2018-06-17T07:22:00.694Z,29.39
2018-06-17T07:23:00.882Z,29.73
2018-06-17T07:24:01.244Z,29.45
2018-06-17T07:25:01.652Z,28.23
2018-06-17T07:26:01.541Z,29.31
2018-06-17T07:27:01.614Z,29.51
2018-06-17T07:28:02.157Z,29.86
2018-06-17T07:29:02.124Z,30.73
2018-06-17T07:30:02.336Z,30.53
2018-06-17T07:31:02.303Z,29.76
2018-06-17T07:32:02.526Z,30.47
2018-06-17T07:33:02.715Z,30.97
2018-06-17T07:34:02.971Z,29.90
2018-06-17T07:35:03.147Z,29.72
2018-06-17T07:36:03.781Z,30.43
2018-06-17T07:37:03.502Z,30.92
2018-06-17T07:38:03.692Z,32.00
2018-06-17T07:39:03.881Z,32.64
2018-06-17T07:40:04.112Z,33.15
2018-06-17T07:41:04.296Z,33.53
2018-06-17T07:42:04.488Z,33.76
2018-06-17T07:43:04.673Z,33.98
2018-06-17T07:44:04.866Z,34.86
2018-06-17T07:45:05.065Z,34.51
2018-06-17T07:46:05.254Z,33.22
2018-06-17T07:47:05.446Z,33.59
2018-06-17T07:48:05.630Z,33.84
2018-06-17T07:49:05.818Z,34.18
2018-06-17T07:50:06.039Z,33.80
2018-06-17T07:51:06.224Z,34.96
2018-06-17T07:52:06.415Z,35.48
2018-06-17T07:53:06.605Z,36.31
2018-06-17T07:54:06.829Z,36.35
2018-06-17T07:55:07.010Z,35.88
2018-06-17T07:56:07.235Z,36.46
2018-06-17T07:57:07.405Z,36.74
2018-06-17T07:58:07.598Z,36.20
2018-06-17T07:59:07.797Z,36.24
2018-06-17T08:00:07.987Z,36.21
2018-06-17T08:01:08.174Z,36.54
2018-06-17T08:02:08.432Z,36.88
2018-06-17T08:03:08.586Z,36.80
2018-06-17T08:04:08.776Z,37.13
2018-06-17T08:05:08.977Z,36.91
2018-06-17T08:06:09.173Z,36.33
2018-06-17T08:07:09.360Z,34.95
2018-06-17T08:08:09.565Z,35.76
2018-06-17T08:09:09.756Z,36.35
2018-06-17T08:10:10.045Z,36.77
2018-06-17T08:11:10.082Z,36.16
2018-06-17T08:12:10.317Z,36.21
2018-06-17T08:13:10.472Z,36.43
2018-06-17T08:14:10.664Z,37.30
2018-06-17T08:15:10.859Z,37.86
2018-06-17T08:16:11.106Z,38.30
2018-06-17T08:17:11.317Z,37.86
2018-06-17T08:18:11.847Z,36.91
2018-06-17T08:19:11.650Z,36.33
2018-06-17T08:20:11.934Z,35.34
2018-06-17T08:21:12.049Z,35.52
2018-06-17T08:22:12.264Z,34.96
2018-06-17T08:23:12.445Z,36.09
2018-06-17T08:24:12.667Z,35.37
2018-06-17T08:25:12.843Z,36.51
2018-06-17T08:26:13.056Z,37.17
2018-06-17T08:27:13.273Z,36.74
2018-06-17T08:28:13.489Z,36.45
2018-06-17T08:29:13.799Z,37.60
2018-06-17T08:30:13.825Z,37.45
2018-06-17T08:31:14.021Z,36.12
2018-06-17T08:32:14.207Z,34.05
2018-06-17T08:33:14.395Z,32.60
2018-06-17T08:34:14.705Z,31.77
2018-06-17T08:35:14.747Z,32.19
2018-06-17T08:36:15.032Z,33.58
2018-06-17T08:37:15.149Z,34.03
2018-06-17T08:38:15.348Z,33.19
2018-06-17T08:39:15.547Z,33.23
2018-06-17T08:40:15.738Z,32.34
2018-06-17T08:41:16.573Z,32.11
2018-06-17T08:42:16.436Z,30.96
2018-06-17T08:43:16.210Z,30.80
2018-06-17T08:44:16.395Z,30.21
2018-06-17T08:45:16.590Z,29.78
2018-06-17T08:46:16.780Z,29.86
2018-06-17T08:47:16.988Z,31.14
2018-06-17T08:48:17.245Z,31.21
2018-06-17T08:49:17.399Z,30.44
2018-06-17T08:50:17.584Z,29.90
2018-06-17T08:51:17.785Z,29.24
2018-06-17T08:52:17.995Z,28.45
2018-06-17T08:53:18.158Z,27.54
2018-06-17T08:54:18.403Z,26.77
2018-06-17T08:55:18.537Z,26.52
2018-06-17T08:56:18.739Z,26.53
2018-06-17T08:57:18.958Z,26.44
2018-06-17T08:58:20.332Z,26.25
2018-06-17T08:59:19.317Z,25.75
2018-06-17T09:00:19.512Z,25.38
2018-06-17T09:01:19.696Z,25.16
2018-06-17T09:02:21.459Z,25.11
2018-06-17T09:03:20.592Z,25.11
2018-06-17T09:04:21.440Z,25.14
2018-06-17T09:05:21.571Z,25.13
2018-06-17T09:06:23.068Z,25.10
2018-06-17T09:07:22.372Z,25.08
2018-06-17T09:08:22.140Z,24.95
2018-06-17T09:09:23.131Z,24.86
2018-06-17T09:10:22.017Z,24.81
2018-06-17T09:11:23.275Z,24.66
2018-06-17T09:12:22.148Z,24.65
2018-06-17T09:13:24.938Z,24.66
2018-06-17T09:14:22.867Z,24.29
2018-06-17T09:15:23.249Z,24.39
2018-06-17T09:16:23.645Z,24.42
2018-06-17T09:17:23.784Z,25.99
2018-06-17T09:18:23.374Z,27.52
2018-06-17T09:19:24.065Z,28.41
2018-06-17T09:20:24.320Z,29.10
2018-06-17T09:21:23.843Z,28.42
2018-06-17T09:22:24.248Z,27.68
2018-06-17T09:23:24.369Z,27.59
2018-06-17T09:24:24.953Z,27.55
2018-06-17T09:25:26.134Z,27.35
2018-06-17T09:26:24.708Z,26.71
2018-06-17T09:27:25.286Z,26.33
2018-06-17T09:28:25.409Z,25.99
2018-06-17T09:29:25.728Z,26.13
2018-06-17T09:30:25.675Z,26.00
2018-06-17T09:31:26.298Z,26.02
2018-06-17T09:32:26.553Z,25.93
2018-06-17T09:33:26.170Z,25.68
2018-06-17T09:34:26.982Z,25.21
2018-06-17T09:35:28.804Z,25.22
2018-06-17T09:36:26.913Z,25.06
2018-06-17T09:37:29.394Z,24.96
2018-06-17T09:38:28.083Z,24.73
2018-06-17T09:39:27.541Z,24.61
2018-06-17T09:40:28.014Z,24.53
2018-06-17T09:41:28.254Z,24.32
2018-06-17T09:42:28.840Z,24.23
2018-06-17T09:43:28.531Z,24.13
2018-06-17T09:44:28.233Z,24.11
2018-06-17T09:45:29.016Z,24.13
2018-06-17T09:46:30.516Z,24.13
2018-06-17T09:47:28.433Z,24.05
2018-06-17T09:48:29.723Z,24.55
2018-06-17T09:49:31.944Z,24.58
2018-06-17T09:50:30.004Z,24.76
2018-06-17T09:51:28.840Z,25.07
2018-06-17T09:52:29.744Z,25.80
2018-06-17T09:53:29.708Z,26.29
2018-06-17T09:54:30.932Z,27.40
2018-06-17T09:55:30.917Z,28.14
2018-06-17T09:56:30.962Z,28.57
2018-06-17T09:57:30.911Z,28.86
2018-06-17T09:58:32.645Z,28.56
2018-06-17T09:59:31.021Z,28.59
2018-06-17T10:00:31.151Z,28.60
2018-06-17T10:01:31.311Z,28.42
2018-06-17T10:02:31.570Z,27.74
2018-06-17T10:03:32.558Z,27.26
2018-06-17T10:04:32.598Z,27.11
2018-06-17T10:05:33.473Z,26.75
2018-06-17T10:06:32.269Z,26.70
2018-06-17T10:07:32.854Z,26.71
2018-06-17T10:08:31.531Z,26.45
2018-06-17T10:09:31.712Z,26.80
2018-06-17T10:10:31.893Z,26.77
2018-06-17T10:11:32.083Z,26.96
2018-06-17T10:12:32.280Z,26.97
2018-06-17T10:13:32.472Z,27.11
2018-06-17T10:14:32.655Z,27.26
2018-06-17T10:15:32.843Z,27.27
2018-06-17T10:16:33.077Z,27.25
2018-06-17T10:17:33.140Z,27.33
2018-06-17T10:18:33.328Z,26.95
2018-06-17T10:19:33.516Z,26.37
2018-06-17T10:20:33.689Z,25.85
2018-06-17T10:21:33.884Z,25.91
2018-06-17T10:22:34.070Z,25.99
2018-06-17T10:23:34.263Z,26.02
2018-06-17T10:24:34.438Z,26.00
2018-06-17T10:25:34.617Z,25.83
2018-06-17T10:26:34.804Z,25.83
2018-06-17T10:27:34.986Z,25.70
2018-06-17T10:28:35.170Z,25.68
2018-06-17T10:29:35.369Z,25.66
2018-06-17T10:30:35.536Z,25.51
2018-06-17T10:31:35.727Z,25.40
2018-06-17T10:32:35.908Z,25.43
2018-06-17T10:33:36.096Z,25.25
2018-06-17T10:34:36.286Z,25.10
2018-06-17T10:35:36.472Z,25.10
2018-06-17T10:36:36.655Z,25.10
2018-06-17T10:37:36.850Z,25.11
2018-06-17T10:38:39.275Z,25.03
2018-06-17T10:39:37.313Z,25.07
2018-06-17T10:40:37.349Z,24.88
2018-06-17T10:41:38.356Z,24.98
2018-06-17T10:42:39.264Z,24.92
2018-06-17T10:43:37.973Z,24.73
2018-06-17T10:44:37.977Z,24.61
2018-06-17T10:45:38.007Z,24.61
2018-06-17T10:46:38.197Z,24.65
2018-06-17T10:47:38.391Z,24.70
2018-06-17T10:48:38.578Z,24.58
2018-06-17T10:49:38.760Z,24.42
2018-06-17T10:50:38.953Z,24.20
2018-06-17T10:51:39.150Z,23.95
2018-06-17T10:52:39.324Z,24.01
2018-06-17T10:53:39.512Z,24.03
2018-06-17T10:54:39.699Z,24.11
2018-06-17T10:55:39.896Z,23.95
2018-06-17T10:56:40.073Z,24.01
2018-06-17T10:57:40.263Z,23.96
2018-06-17T10:58:40.450Z,24.01
2018-06-17T10:59:41.174Z,24.06
2018-06-17T11:00:43.830Z,24.14
2018-06-17T11:01:41.654Z,24.29
2018-06-17T11:02:41.160Z,24.29
2018-06-17T11:03:43.368Z,24.35
2018-06-17T11:04:41.485Z,24.39
2018-06-17T11:05:41.838Z,24.36
2018-06-17T11:06:41.857Z,24.53
2018-06-17T11:07:42.054Z,24.63
2018-06-17T11:08:42.233Z,24.86
2018-06-17T11:09:42.420Z,24.95
2018-06-17T11:10:42.736Z,24.85
2018-06-17T11:11:42.822Z,24.99
2018-06-17T11:12:43.005Z,25.06
2018-06-17T11:13:43.189Z,25.08
2018-06-17T11:14:43.375Z,25.11
2018-06-17T11:15:43.559Z,24.99
2018-06-17T11:16:43.754Z,24.95
2018-06-17T11:17:43.931Z,24.74
2018-06-17T11:18:44.110Z,24.74
2018-06-17T11:19:44.332Z,25.13
2018-06-17T11:20:44.483Z,25.22
2018-06-17T11:21:44.664Z,25.36
2018-06-17T11:22:44.857Z,25.50
2018-06-17T11:23:45.056Z,25.66
2018-06-17T11:24:45.237Z,25.58
2018-06-17T11:25:47.848Z,25.51
2018-06-17T11:26:47.661Z,25.43
2018-06-17T11:27:47.507Z,25.31
2018-06-17T11:28:47.422Z,25.35
2018-06-17T11:29:48.215Z,25.35
2018-06-17T11:30:47.794Z,25.60
2018-06-17T11:31:48.685Z,25.68
2018-06-17T11:32:48.539Z,25.55
2018-06-17T11:33:48.580Z,25.21
2018-06-17T11:34:49.419Z,24.91
2018-06-17T11:35:49.267Z,24.99
2018-06-17T11:36:48.731Z,25.11
2018-06-17T11:37:50.845Z,25.04
2018-06-17T11:38:49.184Z,25.17
2018-06-17T11:39:50.934Z,25.38
2018-06-17T11:40:49.641Z,25.53
2018-06-17T11:41:52.791Z,25.33
2018-06-17T11:42:52.951Z,25.38
2018-06-17T11:43:49.934Z,25.35
2018-06-17T11:44:51.613Z,25.43
2018-06-17T11:45:51.778Z,24.95
2018-06-17T11:46:51.620Z,24.86
2018-06-17T11:47:50.915Z,24.78
2018-06-17T11:48:51.882Z,24.70
2018-06-17T11:49:50.852Z,24.76
2018-06-17T11:50:51.549Z,24.93
2018-06-17T11:51:53.312Z,25.28
2018-06-17T11:52:52.136Z,25.33
2018-06-17T11:53:52.379Z,25.25
2018-06-17T11:54:53.596Z,25.28
2018-06-17T11:55:53.513Z,25.17
2018-06-17T11:56:52.006Z,25.31
2018-06-17T11:57:52.526Z,25.40
2018-06-17T11:58:53.076Z,25.31
2018-06-17T11:59:53.029Z,25.25
2018-06-17T12:00:52.995Z,25.10
2018-06-17T12:01:52.798Z,25.03
2018-06-17T12:02:53.162Z,24.89
2018-06-17T12:03:53.462Z,24.96
2018-06-17T12:04:52.808Z,24.66
2018-06-17T12:05:53.438Z,24.68
2018-06-17T12:06:53.919Z,24.86
2018-06-17T12:07:53.732Z,24.68
2018-06-17T12:08:54.843Z,24.60
2018-06-17T12:09:54.448Z,24.48
2018-06-17T12:10:54.567Z,24.65
2018-06-17T12:11:55.522Z,24.76
2018-06-17T12:12:54.936Z,24.63
2018-06-17T12:13:54.379Z,24.58
2018-06-17T12:14:54.965Z,24.74
2018-06-17T12:15:54.763Z,24.61
2018-06-17T12:16:56.069Z,24.74
2018-06-17T12:17:54.895Z,24.69
2018-06-17T12:18:56.469Z,24.73
2018-06-17T12:19:56.232Z,24.74
2018-06-17T12:20:58.033Z,24.66
2018-06-17T12:21:56.312Z,24.55
2018-06-17T12:22:57.261Z,24.69
2018-06-17T12:23:56.266Z,24.73
2018-06-17T12:24:56.705Z,24.84
2018-06-17T12:25:58.197Z,24.92
2018-06-17T12:26:58.143Z,24.96
2018-06-17T12:27:58.224Z,25.17
2018-06-17T12:28:58.380Z,25.22
2018-06-17T12:29:58.312Z,25.36
2018-06-17T12:30:59.119Z,25.51
2018-06-17T12:31:58.438Z,25.60
2018-06-17T12:32:58.963Z,25.59
2018-06-17T12:34:00.750Z,25.70
2018-06-17T12:34:57.659Z,25.85
2018-06-17T12:35:59.894Z,26.02
2018-06-17T12:36:59.437Z,26.03
2018-06-17T12:37:59.067Z,26.02
2018-06-17T12:39:00.088Z,25.98
2018-06-17T12:40:00.313Z,26.19
2018-06-17T12:41:02.263Z,26.18
2018-06-17T12:42:00.422Z,26.37
2018-06-17T12:43:02.824Z,26.55
2018-06-17T12:44:01.397Z,26.38
2018-06-17T12:44:59.215Z,26.13
2018-06-17T12:46:01.695Z,25.99
2018-06-17T12:47:01.551Z,25.70
2018-06-17T12:47:59.968Z,25.32
2018-06-17T12:48:59.941Z,25.38
2018-06-17T12:50:00.079Z,25.23
2018-06-17T12:51:00.303Z,24.99
2018-06-17T12:52:00.511Z,24.80
2018-06-17T12:53:00.734Z,24.76
2018-06-17T12:54:00.976Z,24.63
2018-06-17T12:55:01.249Z,24.50